Frenchglen, OR

4:24 AM PDT on August 21, 2014 (GMT -0700)
Lake County | Change Station
CLOSE
Current Station
Airport
Location: Lakeview AWS,
Elevation: 4728 ft
Nearby Weather Stations

Elev 4728 ft 42.16 °N, 120.40 °W | Updated 9 minutes ago

Clear
Clear
46 °F
Feels Like 44 °F
N
5
Wind Variable Wind from North

Today
High -- | Low -- °F
--% Chance of Precip.
Yesterday
High -- | Low -- °F
Precip. -- in
6:08 AM 7:48 PM
Waning Crescent, 15% visible
Pressure 30.09 in
Visibility 10.0 miles
Clouds Clear
Windchill 44 °F
Dew Point 39 °F
Humidity 76%
Rainfall 0.00 in
Snow Depth 0 in
UV 0 out of 12
Pollen 5.70 out of 12
Air Quality Not available.
Flu Activity Not available.
METAR KLKV 211115Z AUTO 01004KT 10SM CLR 08/04 A3009 RMK AO1

More Conditions Fewer Conditions

Pressure 30.09 in
Visibility 10.0 miles
Clouds Clear
Windchill 44 °F
Dew Point 39 °F
Humidity 76%
Rainfall 0.00 in
Snow Depth 0 in
UV 0 out of 12
Pollen 5.70 out of 12
Air Quality Not available.
Flu Activity Not available.
METAR KLKV 211115Z AUTO 01004KT 10SM CLR 08/04 A3009 RMK AO1

More Conditions Fewer Conditions

10-Day Weather Forecast

Almanac

Astronomy

Aug. 21, 2014 Rise Set
Actual Time 6:08 AM PDT 7:48 PM PDT
Civil Twilight 5:38 AM PDT 8:18 PM PDT
Nautical Twilight 5:02 AM PDT 8:54 PM PDT
Astronomical Twilight 4:23 AM PDT 9:33 PM PDT
Moon 2:40 AM PDT 5:22 PM PDT
Length of Visible Light 14h 39m
Length of Day
13h 39m
Tomorrow will be 2m 40s shorter.
Waning Crescent, 15% of the Moon is Illuminated
Today
Waning Crescent
Aug 25
New
Sep 2
First Quarter
Sep 8
Full
Sep 15
Last Quarter

Today's Extremes

State Highs State Lows

Community

WunderPhotos

Upload Photos

1,745,870 photos uploaded!

Nearby

Snow Depth

Station Depth Elevation
Fish Creek 0 in 7900 ft
Snow Mountain 0 in 6220 ft
Lake Creek R.S. 0 in 5200 ft
Starr Ridge 0 in 5300 ft
Blue Mountain Spring 0 in 5900 ft

Earthquake Activity

City Distance Mag. Time & Date
No recent earthquake activity has been reported nearby.
Minimum magnitude displayed is 2.5.

Coastal Water Temperatures

Place Temperature
No Stations Reporting

Nearby Weather Stations